Terminal Aerodrome Forecast
Issued by NWS

Home | Current Version | Previous Version | Graphics & Text | Print | Product List | Glossary Off
Versions: 1 2 3 4 5 6 7 8 9 10 11 12 13 14 15 16 17 18

000
FTUS41 KCLE 051127
TAFFDY
TAF
KFDY 051127Z 0512/0612 31006KT 6SM -SHRA BR BKN007 OVC012
      TEMPO 0512/0515 3SM BR BKN004
     FM051500 36008KT P6SM BKN012 OVC025
     FM051700 02015G25KT P6SM OVC035
     FM060100 01006KT P6SM SKC=

USA.gov is the U.S. government's official web portal to all federal, state and local government web resources and services.